Time;durP1;ratioP1;P1;durP2;ratioP2;P2;SDS_P1;SDS_P2;PMS_P1;PMS_P2;Temp;Humidity;BMP_temperature;BMP_pressure;BME280_temperature;BME280_humidity;BME280_pressure;Samples;Min_cycle;Max_cycle;Signal;HPM_P1;HPM_P2
2022/10/03 00:01:21;;;;;;;8.73;3.30;;;13.40;77.20;;;;;;5116264;28;20353;-66
2022/10/03 00:04:08;;;;;;;10.10;3.47;;;13.40;77.20;;;;;;5116202;28;20038;-66
2022/10/03 00:06:50;;;;;;;7.63;3.13;;;13.40;77.30;;;;;;5131800;27;20035;-66
2022/10/03 00:09:23;;;;;;;;;;;13.40;77.30;;;;;;5118022;27;20038;-66
2022/10/03 00:12:07;;;;;;;9.30;3.50;;;13.30;77.20;;;;;;5116729;28;20356;-66
2022/10/03 00:14:55;;;;;;;10.35;3.38;;;13.30;77.40;;;;;;5116861;28;20066;-66
2022/10/03 00:17:54;;;;;;;7.30;2.97;;;13.30;77.40;;;;;;5112773;28;20066;-66
2022/10/03 00:21:00;;;;;;;10.73;3.58;;;13.30;77.40;;;;;;5116032;28;20074;-66
2022/10/03 00:24:16;;;;;;;10.57;3.63;;;13.30;77.50;;;;;;5115015;28;20020;-66
2022/10/03 00:27:15;;;;;;;9.55;3.50;;;13.30;77.40;;;;;;5051168;28;20128;-66
2022/10/03 00:30:15;;;;;;;9.32;3.45;;;13.30;77.50;;;;;;5053669;28;20033;-66
2022/10/03 00:33:08;;;;;;;8.80;3.10;;;13.30;77.50;;;;;;5053431;28;20098;-66
2022/10/03 00:36:21;;;;;;;7.75;3.03;;;13.30;77.40;;;;;;5048177;28;20507;-66
2022/10/03 00:39:17;;;;;;;7.80;3.10;;;13.20;77.50;;;;;;5023256;28;20057;-66
2022/10/03 00:42:01;;;;;;;10.73;3.42;;;13.20;77.50;;;;;;5043185;28;20041;-66
2022/10/03 00:44:27;;;;;;;9.32;3.13;;;13.20;77.60;;;;;;5045004;28;20043;-66
2022/10/03 00:46:52;;;;;;;8.30;3.30;;;13.20;77.60;;;;;;5036832;28;20516;-66
2022/10/03 00:50:02;;;;;;;8.35;3.60;;;13.20;77.60;;;;;;5053350;28;20040;-66
2022/10/03 00:52:54;;;;;;;8.95;3.30;;;13.20;77.60;;;;;;5054870;28;20033;-66
2022/10/03 00:55:40;;;;;;;10.57;3.33;;;13.20;77.60;;;;;;5051975;28;20029;-66
2022/10/03 00:58:32;;;;;;;9.23;3.20;;;13.10;77.60;;;;;;5105178;28;20062;-66
2022/10/03 01:01:05;;;;;;;;;;;13.10;77.70;;;;;;5113524;27;20031;-67
2022/10/03 01:03:44;;;;;;;7.68;2.70;;;13.10;77.60;;;;;;5116112;27;19986;-66
2022/10/03 01:06:25;;;;;;;8.73;2.88;;;13.10;77.80;;;;;;5114713;27;20027;-66
2022/10/03 01:09:05;;;;;;;6.75;3.33;;;13.10;77.80;;;;;;5115178;27;20157;-66
2022/10/03 01:11:37;;;;;;;11.43;3.30;;;13.10;77.80;;;;;;5115758;28;20046;-66
2022/10/03 01:14:18;;;;;;;10.82;4.10;;;13.00;77.80;;;;;;5114707;27;20360;-66
2022/10/03 01:17:03;;;;;;;;;;;13.00;77.80;;;;;;5117702;27;20047;-66
2022/10/03 01:19:58;;;;;;;5.32;2.78;;;13.00;77.80;;;;;;5115507;28;20300;-66
2022/10/03 01:22:38;;;;;;;7.72;2.88;;;13.00;77.80;;;;;;5115560;28;20030;-66
2022/10/03 01:25:12;;;;;;;8.43;3.03;;;13.00;77.80;;;;;;5114588;27;20118;-66
2022/10/03 01:31:03;;;;;;;10.55;3.15;;;13.00;77.70;;;;;;5069868;28;20033;-66
2022/10/03 01:33:47;;;;;;;9.48;3.42;;;13.00;77.90;;;;;;5065710;28;20078;-66
2022/10/03 01:36:19;;;;;;;10.95;3.05;;;13.00;77.90;;;;;;5064478;28;20131;-66
2022/10/03 01:39:15;;;;;;;8.73;3.60;;;13.00;77.90;;;;;;5073004;28;20036;-66
2022/10/03 01:41:59;;;;;;;10.05;3.33;;;13.00;77.90;;;;;;5051732;28;20052;-66
2022/10/03 01:44:40;;;;;;;9.60;3.60;;;13.00;77.90;;;;;;5071676;28;20036;-66
2022/10/03 01:47:19;;;;;;;10.80;3.63;;;12.90;77.90;;;;;;5070288;28;20419;-66
2022/10/03 01:49:51;;;;;;;12.85;3.47;;;12.90;77.90;;;;;;5055585;28;20044;-67
2022/10/03 01:52:38;;;;;;;11.13;3.40;;;12.90;77.90;;;;;;5056183;28;20526;-66
2022/10/03 01:56:01;;;;;;;11.60;3.42;;;12.90;78.00;;;;;;5060639;28;20046;-66
2022/10/03 01:58:56;;;;;;;9.15;3.45;;;12.90;77.90;;;;;;5030357;28;20130;-66
2022/10/03 02:01:28;;;;;;;10.73;3.42;;;12.90;78.10;;;;;;5027458;28;20033;-66
2022/10/03 02:04:10;;;;;;;;;;;12.80;78.00;;;;;;5017501;28;20450;-66
2022/10/03 02:06:48;;;;;;;8.90;3.35;;;12.80;78.00;;;;;;5029140;28;19921;-66
2022/10/03 02:09:40;;;;;;;7.85;3.15;;;12.80;78.10;;;;;;5073106;28;20817;-66
2022/10/03 02:12:12;;;;;;;8.20;3.67;;;12.80;78.10;;;;;;5073167;28;20047;-66
2022/10/03 02:14:57;;;;;;;10.02;3.83;;;12.80;78.10;;;;;;5055618;28;20469;-66
2022/10/03 02:17:35;;;;;;;10.60;3.67;;;12.80;78.10;;;;;;5072282;28;20121;-66
2022/10/03 02:20:13;;;;;;;10.80;4.03;;;12.80;78.10;;;;;;5071303;28;20092;-66
2022/10/03 02:22:50;;;;;;;10.45;3.45;;;12.80;78.10;;;;;;5072854;28;20045;-66
2022/10/03 02:25:50;;;;;;;9.95;3.50;;;12.80;78.10;;;;;;5072678;28;20347;-66
2022/10/03 02:28:35;;;;;;;9.90;3.53;;;12.80;78.20;;;;;;5046409;28;20051;-66
2022/10/03 02:31:39;;;;;;;11.80;3.83;;;12.80;78.10;;;;;;5113789;28;20039;-66
2022/10/03 02:34:25;;;;;;;10.85;3.33;;;12.80;78.00;;;;;;5108549;27;20035;-66
2022/10/03 02:37:22;;;;;;;9.50;2.85;;;12.80;78.10;;;;;;5115750;28;20062;-66
2022/10/03 02:40:16;;;;;;;9.45;3.47;;;12.80;78.10;;;;;;5118723;28;20027;-66
2022/10/03 02:43:10;;;;;;;9.65;3.30;;;12.70;78.00;;;;;;5107784;28;20027;-66
2022/10/03 02:45:52;;;;;;;8.98;3.25;;;12.70;78.00;;;;;;5119254;27;20026;-66
2022/10/03 02:48:46;;;;;;;9.80;3.90;;;12.70;78.00;;;;;;5119328;27;20107;-66
2022/10/03 02:51:19;;;;;;;10.35;3.38;;;12.70;78.10;;;;;;5106214;28;20344;-66
2022/10/03 02:54:23;;;;;;;11.05;3.35;;;12.60;78.10;;;;;;5118554;28;20607;-66
2022/10/03 02:56:49;;;;;;;8.57;2.95;;;12.60;78.10;;;;;;5116190;27;20036;-65
2022/10/03 02:59:53;;;;;;;8.57;3.75;;;12.60;78.20;;;;;;5118265;28;20082;-66
2022/10/03 03:02:40;;;;;;;8.02;3.65;;;12.60;78.20;;;;;;5116415;27;20038;-66
2022/10/03 03:05:24;;;;;;;14.00;3.80;;;12.60;78.10;;;;;;5116718;27;20043;-66
2022/10/03 03:08:05;;;;;;;8.43;3.60;;;12.60;78.20;;;;;;5116886;27;20086;-66
2022/10/03 03:10:47;;;;;;;9.93;3.83;;;12.60;78.20;;;;;;5117361;28;21341;-66
2022/10/03 03:13:25;;;;;;;8.13;3.60;;;12.60;78.80;;;;;;5105752;28;20028;-66
2022/10/03 03:16:15;;;;;;;8.15;3.40;;;12.60;78.30;;;;;;5116899;27;20368;-66
2022/10/03 03:19:01;;;;;;;8.27;3.47;;;12.60;78.30;;;;;;5117636;28;20092;-65
2022/10/03 03:22:00;;;;;;;11.18;3.70;;;12.60;78.30;;;;;;5117660;28;20027;-66
2022/10/03 03:24:36;;;;;;;8.30;3.55;;;12.60;78.20;;;;;;5113721;27;20051;-66
2022/10/03 03:27:17;;;;;;;9.15;3.40;;;12.60;78.30;;;;;;5117774;27;20139;-66
2022/10/03 03:30:04;;;;;;;10.00;3.70;;;12.50;78.30;;;;;;5116807;28;20340;-66
2022/10/03 03:32:36;;;;;;;11.45;3.42;;;12.50;78.30;;;;;;5117898;28;20088;-65
2022/10/03 03:35:27;;;;;;;9.02;3.80;;;12.50;78.30;;;;;;5117101;27;20037;-66
2022/10/03 03:38:05;;;;;;;8.52;3.65;;;12.50;78.30;;;;;;5128004;27;20042;-65
2022/10/03 03:40:52;;;;;;;9.10;3.50;;;12.50;78.40;;;;;;5117152;28;20035;-66
2022/10/03 03:43:33;;;;;;;10.52;3.22;;;12.50;78.40;;;;;;5117542;28;20031;-66
2022/10/03 03:46:31;;;;;;;6.95;3.17;;;12.50;78.40;;;;;;5116887;27;20420;-66
2022/10/03 03:49:19;;;;;;;9.50;3.58;;;12.50;78.30;;;;;;5115589;27;20126;-66
2022/10/03 03:52:09;;;;;;;7.32;3.00;;;12.50;78.30;;;;;;5116697;28;20039;-66
2022/10/03 03:54:44;;;;;;;8.63;3.08;;;12.50;78.30;;;;;;5104851;28;20046;-66
2022/10/03 03:57:22;;;;;;;10.07;3.65;;;12.40;78.30;;;;;;5115233;28;20046;-66
2022/10/03 04:00:06;;;;;;;9.48;3.72;;;12.40;78.30;;;;;;5117357;28;20035;-66
2022/10/03 04:03:00;;;;;;;9.07;3.65;;;12.40;78.30;;;;;;5116061;28;20011;-66
2022/10/03 04:05:56;;;;;;;8.18;3.00;;;12.40;78.30;;;;;;5116502;27;20439;-66
2022/10/03 04:08:36;;;;;;;7.75;3.65;;;12.40;78.30;;;;;;5109982;27;20460;-66
2022/10/03 04:11:17;;;;;;;10.40;3.60;;;12.40;78.40;;;;;;5114963;27;20028;-66
2022/10/03 04:13:55;;;;;;;9.02;3.22;;;12.40;78.40;;;;;;5116786;28;20104;-66
2022/10/03 04:19:28;;;;;;;6.78;3.17;;;12.40;78.40;;;;;;5114099;27;20043;-66
2022/10/03 04:22:13;;;;;;;8.57;3.45;;;12.30;78.40;;;;;;5118017;27;20020;-66
2022/10/03 04:24:42;;;;;;;8.88;3.17;;;12.30;78.40;;;;;;5121444;27;20030;-66
2022/10/03 04:27:36;;;;;;;9.55;3.90;;;12.30;78.40;;;;;;5121127;27;20023;-66
2022/10/03 04:30:06;;;;;;;8.70;3.30;;;12.30;78.30;;;;;;5122452;27;20167;-66
2022/10/03 04:33:05;;;;;;;9.80;3.30;;;12.30;78.30;;;;;;5119768;27;20104;-66
2022/10/03 04:36:09;;;;;;;8.68;3.30;;;12.30;78.30;;;;;;5108935;28;20516;-66
2022/10/03 04:39:12;;;;;;;12.20;3.50;;;12.20;78.30;;;;;;5091004;27;20039;-65
2022/10/03 04:41:53;;;;;;;9.88;3.58;;;12.30;78.40;;;;;;5113146;28;20020;-66
2022/10/03 04:44:31;;;;;;;7.85;3.03;;;12.30;78.40;;;;;;5115889;28;20460;-66
2022/10/03 04:47:19;;;;;;;7.35;3.13;;;12.30;78.40;;;;;;5096530;28;20066;-66
2022/10/03 04:50:01;;;;;;;9.10;3.47;;;12.20;78.40;;;;;;5131382;27;20027;-65
2022/10/03 04:52:27;;;;;;;9.35;3.42;;;12.20;78.40;;;;;;5113999;28;20371;-65
2022/10/03 04:55:05;;;;;;;9.25;3.25;;;12.20;78.40;;;;;;5115285;28;20035;-64
2022/10/03 04:57:45;;;;;;;9.02;3.30;;;12.20;78.50;;;;;;5114777;28;20031;-66
2022/10/03 05:00:20;;;;;;;9.35;3.60;;;12.20;78.60;;;;;;5114411;27;20051;-65
2022/10/03 05:02:55;;;;;;;7.95;3.25;;;12.20;78.60;;;;;;5113100;28;20452;-64
2022/10/03 05:05:42;;;;;;;7.80;3.40;;;12.20;78.60;;;;;;5116876;27;20080;-66
2022/10/03 05:08:32;;;;;;;8.13;3.35;;;12.20;78.70;;;;;;5116279;28;20373;-66
2022/10/03 05:11:11;;;;;;;9.35;3.97;;;12.20;78.70;;;;;;5116051;28;20019;-66
2022/10/03 05:13:58;;;;;;;7.55;3.63;;;12.20;78.70;;;;;;5117880;27;20360;-66
2022/10/03 05:16:43;;;;;;;8.35;3.42;;;12.20;78.70;;;;;;5115326;28;20097;-66
2022/10/03 05:19:35;;;;;;;8.73;3.78;;;12.20;78.70;;;;;;5135242;27;20116;-66
2022/10/03 05:22:17;;;;;;;9.13;3.65;;;12.10;78.70;;;;;;5115661;28;20019;-65
2022/10/03 05:24:58;;;;;;;8.18;3.53;;;12.10;78.80;;;;;;5114426;28;20031;-66
2022/10/03 05:27:38;;;;;;;9.43;3.40;;;12.20;78.90;;;;;;5116763;27;20325;-66
2022/10/03 05:30:21;;;;;;;11.60;3.78;;;12.20;78.90;;;;;;5117573;27;20034;-66
2022/10/03 05:33:19;;;;;;;8.13;3.58;;;12.10;78.90;;;;;;5118411;27;20043;-66
2022/10/03 05:36:07;;;;;;;8.73;3.58;;;12.10;78.90;;;;;;5043736;28;20091;-66
2022/10/03 05:38:43;;;;;;;9.18;3.75;;;12.10;79.00;;;;;;5053281;28;20130;-66
2022/10/03 05:41:15;;;;;;;7.47;3.85;;;12.10;78.90;;;;;;5045951;28;20033;-66
2022/10/03 05:44:00;;;;;;;8.45;3.80;;;12.10;79.00;;;;;;5052544;28;20123;-66
2022/10/03 05:46:39;;;;;;;9.38;4.30;;;12.10;79.00;;;;;;5058557;28;20523;-66
2022/10/03 05:49:34;;;;;;;7.70;3.80;;;12.10;79.00;;;;;;5053158;28;20037;-66
2022/10/03 05:52:38;;;;;;;8.38;3.47;;;12.10;78.80;;;;;;5052234;28;20373;-67
2022/10/03 05:55:12;;;;;;;7.30;3.72;;;12.10;78.80;;;;;;5056040;28;20070;-64
2022/10/03 05:58:19;;;;;;;6.68;2.90;;;12.10;78.90;;;;;;5050972;28;20068;-67
2022/10/03 06:00:50;;;;;;;8.23;3.72;;;12.10;78.90;;;;;;5028803;28;20697;-69
2022/10/03 06:03:32;;;;;;;9.10;3.85;;;12.10;78.90;;;;;;5050928;28;20040;-69
2022/10/03 06:06:25;;;;;;;8.40;3.70;;;12.20;78.90;;;;;;5048837;28;20152;-68
2022/10/03 06:09:33;;;;;;;8.98;4.00;;;12.20;78.90;;;;;;5050823;28;20335;-68
2022/10/03 06:12:04;;;;;;;8.80;3.85;;;12.20;78.90;;;;;;5067816;28;20051;-69
2022/10/03 06:14:49;;;;;;;;;;;12.10;78.90;;;;;;5113003;28;20416;-68
2022/10/03 06:17:47;;;;;;;8.88;3.45;;;12.10;78.80;;;;;;5113898;28;19935;-68
2022/10/03 06:20:34;;;;;;;7.75;3.50;;;12.10;78.90;;;;;;5113859;28;20044;-69
2022/10/03 06:23:18;;;;;;;8.40;3.40;;;12.10;78.90;;;;;;5113267;28;20039;-69
2022/10/03 06:25:50;;;;;;;11.38;3.70;;;12.20;78.90;;;;;;5114424;28;20066;-69
2022/10/03 06:28:43;;;;;;;6.90;3.28;;;12.20;79.00;;;;;;5128658;27;20020;-69
2022/10/03 06:31:20;;;;;;;7.15;3.13;;;12.20;78.90;;;;;;5114326;28;20032;-69
2022/10/03 06:34:16;;;;;;;7.55;3.15;;;12.20;78.90;;;;;;5130337;28;20045;-68
2022/10/03 06:36:56;;;;;;;6.05;2.80;;;12.30;78.90;;;;;;5115237;28;20337;-68
2022/10/03 06:39:59;;;;;;;6.38;2.60;;;12.30;78.80;;;;;;5118201;28;20422;-68
2022/10/03 06:42:39;;;;;;;6.40;2.55;;;12.30;78.80;;;;;;5111291;28;20047;-69
2022/10/03 06:45:43;;;;;;;7.07;3.10;;;12.40;79.00;;;;;;5130902;28;20566;-69
2022/10/03 06:48:14;;;;;;;6.57;3.00;;;12.30;78.90;;;;;;5112999;28;20071;-69
2022/10/03 06:51:01;;;;;;;5.70;2.67;;;12.30;79.00;;;;;;5112779;28;20016;-66
2022/10/03 06:53:56;;;;;;;5.78;2.53;;;12.30;79.00;;;;;;5116606;28;20062;-66
2022/10/03 06:57:07;;;;;;;9.18;3.10;;;12.40;79.00;;;;;;5106628;28;20039;-66
2022/10/03 06:59:58;;;;;;;6.85;3.10;;;12.40;79.20;;;;;;5130188;28;20035;-66
2022/10/03 07:02:36;;;;;;;6.10;2.65;;;12.40;79.20;;;;;;5118922;28;20059;-66
2022/10/03 07:05:40;;;;;;;5.80;2.75;;;12.40;79.20;;;;;;5113566;28;20043;-66
2022/10/03 07:09:10;;;;;;;6.63;2.92;;;12.40;79.30;;;;;;5119691;28;20035;-67
2022/10/03 07:11:54;;;;;;;8.27;3.42;;;12.50;79.20;;;;;;5073492;28;20043;-67
2022/10/03 07:14:54;;;;;;;7.68;2.83;;;12.50;79.20;;;;;;5071989;28;20462;-67
2022/10/03 07:17:33;;;;;;;7.65;3.63;;;12.60;79.20;;;;;;5069491;28;20447;-66
2022/10/03 07:20:33;;;;;;;9.40;4.43;;;12.60;79.10;;;;;;5064907;28;20048;-67
2022/10/03 07:23:35;;;;;;;6.70;3.60;;;12.70;79.30;;;;;;5074417;28;20033;-66
2022/10/03 07:26:14;;;;;;;7.80;3.45;;;12.70;79.20;;;;;;5059149;28;20037;-66
2022/10/03 07:28:58;;;;;;;7.18;3.30;;;12.70;79.20;;;;;;5077279;28;20357;-67
2022/10/03 07:32:03;;;;;;;9.38;3.63;;;12.80;79.20;;;;;;5057271;28;20032;-66
2022/10/03 07:35:06;;;;;;;8.65;3.60;;;12.80;79.20;;;;;;5036475;28;20045;-66
2022/10/03 07:41:18;;;;;;;10.05;3.35;;;12.90;79.00;;;;;;4976676;28;20051;-68
2022/10/03 07:44:14;;;;;;;8.55;3.35;;;13.00;79.00;;;;;;4974631;28;20125;-68
2022/10/03 07:47:04;;;;;;;8.40;3.55;;;13.20;78.80;;;;;;4995540;28;20069;-67
2022/10/03 07:49:45;;;;;;;9.63;4.07;;;13.30;78.60;;;;;;5023931;28;20065;-67
2022/10/03 07:52:31;;;;;;;8.07;3.95;;;13.50;78.40;;;;;;5033340;28;20433;-68
2022/10/03 07:55:18;;;;;;;9.25;3.63;;;13.60;78.20;;;;;;5017723;28;20108;-68
2022/10/03 07:58:04;;;;;;;10.55;4.28;;;13.80;77.90;;;;;;5016795;28;20034;-67
2022/10/03 08:01:01;;;;;;;9.48;4.75;;;14.00;77.60;;;;;;5034274;28;20084;-67
2022/10/03 08:03:53;;;;;;;10.05;4.82;;;14.10;77.20;;;;;;5032646;28;20037;-67
2022/10/03 08:06:30;;;;;;;9.68;4.88;;;14.20;77.10;;;;;;5034479;28;20072;-69
2022/10/03 08:08:55;;;;;;;10.93;4.25;;;14.30;77.00;;;;;;5034582;28;20458;-68
2022/10/03 08:11:24;;;;;;;11.95;4.90;;;14.50;76.80;;;;;;5066146;28;20058;-67
2022/10/03 08:14:14;;;;;;;8.75;3.80;;;14.60;76.60;;;;;;5117626;28;20046;-68
2022/10/03 08:17:03;;;;;;;10.38;4.20;;;14.80;76.40;;;;;;5116987;28;20052;-68
2022/10/03 08:20:07;;;;;;;9.60;4.18;;;15.00;76.10;;;;;;5117186;28;20119;-67
2022/10/03 08:22:48;;;;;;;9.27;3.95;;;15.00;75.90;;;;;;5069779;28;20035;-67
2022/10/03 08:25:28;;;;;;;9.48;4.40;;;15.20;75.70;;;;;;5058596;28;20051;-67
2022/10/03 08:28:20;;;;;;;11.82;4.88;;;15.40;75.30;;;;;;5067800;28;20075;-66
2022/10/03 08:31:04;;;;;;;7.43;3.22;;;15.60;75.10;;;;;;5065972;28;20047;-67
2022/10/03 08:33:59;;;;;;;8.13;3.60;;;15.70;74.80;;;;;;5065086;28;20114;-67
2022/10/03 08:36:41;;;;;;;8.00;3.38;;;15.80;74.60;;;;;;5067262;28;20158;-66
2022/10/03 08:39:48;;;;;;;10.20;4.07;;;15.90;74.50;;;;;;5061726;28;20037;-66
2022/10/03 08:42:24;;;;;;;9.88;3.88;;;16.00;74.20;;;;;;5056520;28;20115;-67
2022/10/03 08:45:01;;;;;;;8.68;3.63;;;16.10;74.00;;;;;;5068021;28;20044;-67
2022/10/03 08:47:45;;;;;;;10.70;3.95;;;16.20;73.80;;;;;;5067367;28;20032;-67
2022/10/03 08:50:38;;;;;;;7.50;3.33;;;16.40;73.60;;;;;;5056137;28;20128;-67
2022/10/03 08:53:36;;;;;;;9.88;4.00;;;16.60;73.30;;;;;;5054347;28;20499;-67
2022/10/03 08:56:12;;;;;;;7.00;3.60;;;16.80;73.00;;;;;;5072200;28;20069;-68
2022/10/03 08:58:56;;;;;;;9.27;3.88;;;17.00;72.70;;;;;;5115726;28;20035;-68
2022/10/03 09:01:34;;;;;;;8.05;3.47;;;17.30;72.20;;;;;;5115577;28;20558;-68
2022/10/03 09:04:43;;;;;;;9.25;3.50;;;17.50;71.70;;;;;;5116016;28;20173;-67
2022/10/03 09:07:30;;;;;;;10.50;3.03;;;17.70;71.00;;;;;;5116013;28;20046;-66
2022/10/03 09:10:08;;;;;;;7.90;2.95;;;18.00;70.90;;;;;;5111533;27;20466;-66
2022/10/03 09:12:58;;;;;;;8.48;3.17;;;18.10;70.40;;;;;;5114791;28;20355;-66
2022/10/03 09:15:54;;;;;;;9.20;3.08;;;18.30;69.90;;;;;;5116466;28;20126;-67
2022/10/03 09:18:32;;;;;;;7.75;2.90;;;18.50;69.60;;;;;;5102754;27;20069;-66
2022/10/03 09:21:35;;;;;;;8.25;3.00;;;18.60;69.20;;;;;;5119658;27;20448;-67
2022/10/03 09:24:20;;;;;;;7.60;2.70;;;18.80;68.90;;;;;;5132054;27;20437;-67
2022/10/03 09:27:17;;;;;;;10.73;2.67;;;19.00;68.60;;;;;;5109165;28;20034;-67
2022/10/03 09:30:07;;;;;;;6.65;2.33;;;19.10;68.10;;;;;;5115758;28;20036;-68
2022/10/03 09:32:55;;;;;;;4.65;1.92;;;19.10;68.00;;;;;;5134730;27;20119;-67
2022/10/03 09:35:36;;;;;;;7.50;2.38;;;18.90;67.80;;;;;;5131527;27;20573;-67
2022/10/03 09:38:02;;;;;;;10.75;2.33;;;18.80;68.00;;;;;;5115202;28;20032;-67
2022/10/03 09:41:01;;;;;;;10.75;2.75;;;18.80;68.10;;;;;;5131677;27;20032;-67
2022/10/03 09:43:56;;;;;;;9.13;2.58;;;18.80;67.90;;;;;;5113862;28;20042;-67
2022/10/03 09:47:21;;;;;;;7.93;2.00;;;18.80;67.50;;;;;;5129756;27;20037;-66
2022/10/03 09:50:09;;;;;;;7.35;2.17;;;18.90;67.40;;;;;;5115222;28;20096;-66
2022/10/03 09:52:43;;;;;;;7.82;1.90;;;19.00;67.10;;;;;;5114849;28;20036;-67
2022/10/03 09:55:27;;;;;;;5.75;2.10;;;19.10;67.00;;;;;;5115147;28;20039;-67
2022/10/03 09:58:38;;;;;;;7.72;2.30;;;19.20;66.80;;;;;;5101247;28;20034;-67
2022/10/03 10:01:22;;;;;;;7.20;2.35;;;19.30;66.60;;;;;;5091491;28;20070;-66
2022/10/03 10:04:19;;;;;;;7.03;2.30;;;19.30;66.60;;;;;;5115627;28;20023;-66
2022/10/03 10:07:03;;;;;;;8.75;2.42;;;19.40;66.60;;;;;;5103959;28;20103;-67
2022/10/03 10:09:34;;;;;;;8.60;2.35;;;19.50;66.50;;;;;;5116176;28;20043;-67
2022/10/03 10:12:17;;;;;;;6.05;2.38;;;19.60;66.30;;;;;;5113738;28;20027;-67
2022/10/03 10:15:05;;;;;;;6.93;2.55;;;19.60;66.30;;;;;;5110635;28;20030;-67
2022/10/03 10:17:41;;;;;;;8.18;2.40;;;19.60;66.40;;;;;;5115249;28;20048;-67
2022/10/03 10:20:14;;;;;;;6.57;2.03;;;19.60;66.40;;;;;;5115405;28;20095;-69
2022/10/03 10:23:14;;;;;;;6.82;2.40;;;19.70;66.00;;;;;;5115918;28;20513;-69
2022/10/03 10:26:03;;;;;;;5.90;2.13;;;19.70;65.80;;;;;;5118496;28;20028;-69
2022/10/03 10:28:54;;;;;;;7.55;2.30;;;19.70;65.80;;;;;;5114616;28;20080;-67
2022/10/03 10:32:03;;;;;;;8.13;2.25;;;19.70;65.50;;;;;;5116570;28;20028;-68
2022/10/03 10:35:14;;;;;;;7.97;1.85;;;19.70;65.50;;;;;;5117407;28;20035;-69
2022/10/03 10:38:12;;;;;;;7.10;1.58;;;19.60;65.50;;;;;;5112696;28;20084;-68
2022/10/03 10:40:57;;;;;;;5.75;1.70;;;19.40;65.70;;;;;;5115245;28;20043;-68
2022/10/03 10:43:47;;;;;;;8.00;1.48;;;19.30;66.00;;;;;;5114436;28;20078;-68
2022/10/03 10:46:46;;;;;;;5.15;1.60;;;19.20;66.00;;;;;;5111788;28;20020;-68
2022/10/03 10:49:11;;;;;;;7.72;1.77;;;19.20;65.90;;;;;;5108509;28;20110;-69
2022/10/03 10:52:20;;;;;;;5.63;1.55;;;19.30;65.80;;;;;;5113424;28;20115;-69
2022/10/03 10:55:30;;;;;;;7.18;2.13;;;19.40;65.10;;;;;;5109861;28;20130;-68
2022/10/03 10:58:17;;;;;;;6.30;1.77;;;19.60;64.90;;;;;;5127645;27;20023;-68
2022/10/03 11:01:15;;;;;;;5.43;1.80;;;19.40;65.00;;;;;;5120605;27;20126;-69
2022/10/03 11:04:02;;;;;;;8.40;1.95;;;19.30;66.00;;;;;;5116436;28;20028;-68
2022/10/03 11:06:56;;;;;;;5.88;2.05;;;19.00;65.90;;;;;;5115383;28;20110;-68
2022/10/03 11:09:46;;;;;;;6.03;2.05;;;18.90;66.20;;;;;;5118837;27;20016;-67
2022/10/03 11:12:59;;;;;;;6.72;2.22;;;18.70;67.20;;;;;;5116963;27;20036;-68
2022/10/03 11:15:49;;;;;;;5.72;1.75;;;18.70;66.70;;;;;;5116480;27;20378;-69
2022/10/03 11:18:34;;;;;;;6.75;1.95;;;18.70;66.70;;;;;;5104488;28;20036;-68
2022/10/03 11:21:35;;;;;;;5.93;1.55;;;18.80;66.40;;;;;;5116183;28;20019;-68
2022/10/03 11:24:12;;;;;;;5.45;1.90;;;18.80;66.10;;;;;;5118084;28;20462;-68
2022/10/03 11:27:16;;;;;;;5.10;1.60;;;18.70;66.20;;;;;;5113092;27;20020;-66
2022/10/03 11:30:02;;;;;;;5.07;1.38;;;18.60;66.10;;;;;;5118118;28;20027;-67
2022/10/03 11:33:12;;;;;;;7.80;1.80;;;18.60;66.40;;;;;;5116821;28;20032;-67
2022/10/03 11:35:46;;;;;;;6.88;1.60;;;18.50;66.20;;;;;;5123088;27;20034;-66
2022/10/03 11:38:25;;;;;;;7.72;2.00;;;18.50;66.30;;;;;;5130405;27;20028;-67
2022/10/03 11:41:17;;;;;;;5.55;1.50;;;18.50;66.10;;;;;;5120270;27;20337;-67
2022/10/03 11:44:06;;;;;;;8.05;2.03;;;18.50;66.30;;;;;;5116442;28;20035;-66
2022/10/03 11:47:12;;;;;;;7.72;2.05;;;18.40;66.20;;;;;;5132157;27;20343;-67
2022/10/03 11:49:59;;;;;;;7.88;2.05;;;18.50;66.30;;;;;;5116479;27;20096;-68
2022/10/03 11:52:33;;;;;;;9.55;2.03;;;18.60;66.10;;;;;;5116712;28;20348;-67
2022/10/03 11:55:22;;;;;;;5.28;1.58;;;18.80;65.60;;;;;;5115917;27;20459;-67
2022/10/03 11:58:19;;;;;;;6.18;1.75;;;19.00;65.00;;;;;;5114696;28;20360;-67
2022/10/03 12:00:54;;;;;;;6.95;2.03;;;19.10;64.30;;;;;;5102893;28;20445;-66
2022/10/03 12:03:28;;;;;;;10.20;2.05;;;19.10;64.30;;;;;;5108157;27;20031;-66
2022/10/03 12:09:42;;;;;;;6.88;1.52;;;19.10;64.30;;;;;;5102826;28;20375;-67
2022/10/03 12:12:26;;;;;;;5.55;1.38;;;18.90;64.40;;;;;;5088357;28;20131;-66
2022/10/03 12:14:57;;;;;;;5.30;1.70;;;18.80;64.70;;;;;;5095471;28;20039;-67
2022/10/03 12:17:36;;;;;;;5.72;1.58;;;18.70;65.00;;;;;;5090064;28;20054;-68
2022/10/03 12:20:02;;;;;;;5.40;1.67;;;18.60;65.00;;;;;;5093379;28;20169;-66
2022/10/03 12:22:52;;;;;;;4.43;1.40;;;18.60;65.20;;;;;;5094108;28;20055;-66
2022/10/03 12:25:22;;;;;;;5.20;1.60;;;18.60;65.10;;;;;;5094496;28;20024;-66
2022/10/03 12:28:03;;;;;;;4.53;1.27;;;18.60;64.90;;;;;;5093462;28;20035;-66
2022/10/03 12:30:43;;;;;;;6.30;1.40;;;18.60;64.60;;;;;;5093143;28;20198;-66
2022/10/03 12:33:42;;;;;;;8.35;1.80;;;18.60;64.60;;;;;;5095992;28;20028;-66
2022/10/03 12:36:15;;;;;;;4.35;1.52;;;18.60;64.60;;;;;;5094818;28;20074;-66
2022/10/03 12:39:04;;;;;;;5.97;1.38;;;18.60;64.70;;;;;;5094109;28;20032;-66
2022/10/03 12:41:53;;;;;;;7.30;1.65;;;18.60;64.70;;;;;;5099226;28;20416;-66
2022/10/03 12:44:33;;;;;;;5.75;1.13;;;18.60;64.60;;;;;;5094657;28;20032;-67
2022/10/03 12:47:26;;;;;;;5.35;1.38;;;18.60;64.40;;;;;;5077360;28;20024;-67
2022/10/03 12:50:26;;;;;;;7.90;1.58;;;18.60;64.30;;;;;;5116775;28;20150;-68
2022/10/03 12:53:16;;;;;;;6.70;1.23;;;18.60;64.10;;;;;;5117346;27;20023;-66
2022/10/03 12:56:03;;;;;;;6.68;1.40;;;18.60;63.70;;;;;;5127166;27;20427;-67
2022/10/03 12:58:48;;;;;;;7.20;1.55;;;18.60;64.00;;;;;;5117050;28;20440;-66
2022/10/03 13:01:20;;;;;;;5.03;1.30;;;18.60;63.30;;;;;;5116289;28;20401;-66
2022/10/03 13:04:09;;;;;;;5.40;1.55;;;18.60;63.40;;;;;;5109781;28;20103;-66
2022/10/03 13:06:49;;;;;;;7.53;1.67;;;18.60;63.40;;;;;;5115434;28;20039;-66
2022/10/03 13:09:26;;;;;;;4.78;1.20;;;18.60;63.60;;;;;;5122429;27;20042;-66
2022/10/03 13:12:03;;;;;;;4.07;1.10;;;18.50;63.70;;;;;;5116562;28;20031;-66
2022/10/03 13:15:01;;;;;;;4.30;1.27;;;18.50;63.90;;;;;;5116437;28;20084;-66
2022/10/03 13:17:48;;;;;;;6.75;1.25;;;18.50;64.10;;;;;;5114623;28;20055;-66
2022/10/03 13:20:35;;;;;;;4.55;1.45;;;18.40;64.10;;;;;;5119414;27;20031;-66
2022/10/03 13:23:22;;;;;;;4.68;1.20;;;18.50;64.10;;;;;;5115858;28;20032;-65
2022/10/03 13:26:10;;;;;;;7.32;1.52;;;18.40;64.10;;;;;;5123568;27;20031;-65
2022/10/03 13:29:22;;;;;;;5.60;1.17;;;18.50;64.20;;;;;;5119774;27;20032;-67
2022/10/03 13:31:55;;;;;;;7.18;1.50;;;18.40;64.30;;;;;;5107957;27;20408;-65
2022/10/03 13:34:27;;;;;;;4.47;1.40;;;18.40;64.50;;;;;;5116215;28;20035;-67
2022/10/03 13:37:08;;;;;;;;;;;18.40;64.70;;;;;;5116404;27;20027;-67
2022/10/03 13:39:37;;;;;;;3.50;1.27;;;18.40;64.80;;;;;;5114710;28;20010;-66
2022/10/03 13:42:18;;;;;;;6.78;1.48;;;18.40;64.80;;;;;;5132029;27;20011;-67
2022/10/03 13:45:02;;;;;;;5.30;0.98;;;18.40;64.80;;;;;;5115600;28;20440;-67
2022/10/03 13:47:31;;;;;;;6.85;1.77;;;18.40;64.90;;;;;;5132263;27;20024;-67
2022/10/03 13:50:00;;;;;;;5.57;1.48;;;18.40;64.70;;;;;;5114776;28;20348;-67
2022/10/03 13:52:45;;;;;;;6.97;2.15;;;18.30;64.60;;;;;;5114855;28;20023;-67
2022/10/03 13:55:19;;;;;;;7.28;1.55;;;18.40;64.70;;;;;;5115661;28;20488;-67
2022/10/03 13:58:17;;;;;;;5.97;1.50;;;18.40;64.70;;;;;;5114584;28;20027;-67
2022/10/03 14:01:12;;;;;;;6.57;1.70;;;18.40;64.90;;;;;;5131120;27;20043;-67
2022/10/03 14:04:00;;;;;;;4.78;1.30;;;18.40;64.90;;;;;;5114473;28;20027;-67
2022/10/03 14:06:31;;;;;;;5.22;1.55;;;18.40;64.80;;;;;;5113640;28;20032;-67
2022/10/03 14:09:25;;;;;;;6.80;1.65;;;18.40;64.70;;;;;;5109276;28;20047;-67
2022/10/03 14:12:05;;;;;;;6.47;1.52;;;18.40;64.40;;;;;;5115274;28;20412;-67
2022/10/03 14:14:59;;;;;;;3.92;1.40;;;18.40;64.30;;;;;;5114664;28;20039;-67
2022/10/03 14:17:45;;;;;;;7.75;1.70;;;18.40;64.20;;;;;;5112731;28;20039;-67
2022/10/03 14:20:36;;;;;;;6.03;1.38;;;18.40;64.30;;;;;;5116810;28;20046;-66
2022/10/03 14:23:32;;;;;;;7.88;1.98;;;18.50;64.40;;;;;;5112411;28;20066;-66
2022/10/03 14:26:14;;;;;;;8.18;1.92;;;18.40;64.10;;;;;;5114317;28;20447;-66
2022/10/03 14:28:51;;;;;;;5.35;1.38;;;18.40;64.10;;;;;;5114782;28;20490;-67
2022/10/03 14:31:35;;;;;;;6.78;1.70;;;18.40;64.00;;;;;;5117166;27;20623;-67
2022/10/03 14:34:37;;;;;;;4.80;1.40;;;18.40;64.00;;;;;;5117973;27;20097;-66
2022/10/03 14:37:38;;;;;;;6.47;1.60;;;18.40;63.90;;;;;;5118641;28;20041;-67
2022/10/03 14:40:12;;;;;;;9.20;1.60;;;18.40;64.10;;;;;;5105781;27;20031;-67
2022/10/03 14:43:06;;;;;;;5.78;1.50;;;18.30;64.20;;;;;;5121785;27;20073;-67